Terminal Aerodrome Forecast
Issued by NWS Charleston, WV

Home | Current Version | Previous Version | Text Only | Print | Product List | Glossary On
Versions: 1 2 3 4 5 6 7 8 9 10 11 12 13 14 15 16 17 18 19 20 21
508
FTUS41 KRLX 230842 AAA
TAFPKB
TAF AMD
KPKB 230842Z 2309/2406 21004KT P6SM SCT015
     FM231400 22009KT P6SM SHRA OVC030
     FM232200 22012G18KT 3SM SHRA VCTS OVC025CB=

USA.gov is the U.S. government's official web portal to all federal, state and local government web resources and services.